Archival Weather

Chicago O'Hare International

Chicago, Illinois (KORD)

Report from: Sunday, December 4, 2022 1:51 PM CST
Current time: Friday, June 14, 2024 6:16 AM CDT

Current weather – Weather history – Daily summaries
Weather forecast

Temperature3.9°C (39.0°F)
Wind chill-0.6°C (31.0°F)
Dew point-10.6°C (12.9°F)
Winds 12 kts (6.2 m/s, 13.8 mph) West-Southwest (240°)
Wind gusts 20 kts (10.3 m/s, 23 mph)
Visibility10 mi. (16.1 km)
Clouds Sky clear
Altimeter30.10 in.Hg (1019 mB)
Relative humidity34 %
Density altitude-1,522 ft. (-464 m)
Sea-level pressure102.0 kPa (1020 mB, 30.12 in.Hg)
Remarks System requires maintenance
Automated weather observing station with precipitation discriminator
Flight conditions Visual Meteorological Conditions
Raw dataKORD 041951Z 24012G20KT 10SM CLR 04/M11 A3010 RMK AO2 SLP199 T00391106 $
An error has occurred. This application may no longer respond until reloaded. Reload 🗙